Time;durP1;ratioP1;P1;durP2;ratioP2;P2;SDS_P1;SDS_P2;PMS_P1;PMS_P2;Temp;Humidity;BMP_temperature;BMP_pressure;BME280_temperature;BME280_humidity;BME280_pressure;Samples;Min_cycle;Max_cycle;Signal;HPM_P1;HPM_P2
2021/12/19 00:00:11;;;;;;;60.13;29.92;;;6.50;99.90;;;7.31;100.00;102438.53;4990813;28;20050;-77
2021/12/19 00:11:01;;;;;;;56.15;28.95;;;6.50;99.90;;;7.24;100.00;102422.19;5000354;28;20050;-79
2021/12/19 00:13:27;;;;;;;61.45;30.13;;;6.50;99.90;;;7.34;100.00;102432.38;4999844;28;20073;-79
2021/12/19 00:15:56;;;;;;;56.88;31.05;;;6.50;99.90;;;7.28;100.00;102408.53;4999796;28;20026;-78
2021/12/19 00:18:22;;;;;;;55.40;29.70;;;6.50;99.90;;;7.32;100.00;102415.19;4981957;28;20513;-77
2021/12/19 00:20:50;;;;;;;63.05;32.60;;;6.50;99.90;;;7.32;100.00;102420.75;4999792;28;20049;-77
2021/12/19 00:23:17;;;;;;;58.60;31.58;;;6.50;99.90;;;7.34;100.00;102422.09;4981758;28;20034;-79
2021/12/19 00:25:43;;;;;;;59.10;31.38;;;6.50;99.90;;;7.32;100.00;102420.75;4979230;28;20357;-77
2021/12/19 00:28:09;;;;;;;57.55;28.70;;;6.50;99.90;;;7.42;100.00;102415.03;4961568;28;20031;-78
2021/12/19 00:30:36;;;;;;;51.22;27.60;;;6.60;99.90;;;7.50;100.00;102422.75;4961938;28;20031;-78
2021/12/19 00:33:07;;;;;;;53.00;27.88;;;6.60;99.90;;;7.38;100.00;102414.00;4979927;28;20030;-77
2021/12/19 00:35:33;;;;;;;52.63;28.27;;;6.60;99.90;;;7.37;100.00;102404.81;4979254;28;20057;-80
2021/12/19 00:38:03;;;;;;;54.80;29.13;;;6.60;99.90;;;7.42;100.00;102401.97;4979267;28;20110;-76
2021/12/19 00:40:29;;;;;;;49.42;25.83;;;6.60;99.90;;;7.39;100.00;102402.56;4965644;28;20041;-79
2021/12/19 00:43:07;;;;;;;51.95;27.13;;;6.60;99.90;;;7.40;100.00;102400.63;4963723;28;20405;-79
2021/12/19 00:45:35;;;;;;;43.83;24.17;;;6.60;99.90;;;7.39;100.00;102397.00;4981400;28;20547;-78
2021/12/19 00:48:08;;;;;;;44.70;23.65;;;6.60;99.90;;;7.44;100.00;102393.34;4980013;28;20027;-78
2021/12/19 00:50:37;;;;;;;42.85;24.10;;;6.60;99.90;;;7.41;100.00;102393.94;4980209;28;20508;-78
2021/12/19 00:53:12;;;;;;;45.03;26.33;;;6.60;99.90;;;7.35;100.00;102398.72;4980189;28;20054;-79
2021/12/19 00:55:40;;;;;;;49.58;27.33;;;6.60;99.90;;;7.38;100.00;102387.00;4980116;28;20045;-79
2021/12/19 00:58:06;;;;;;;42.88;24.52;;;6.60;99.90;;;7.40;100.00;102384.78;4978264;28;20456;-77
2021/12/19 01:00:35;;;;;;;44.88;24.13;;;6.60;99.90;;;7.43;100.00;102381.41;4961084;28;20053;-78
2021/12/19 01:03:01;;;;;;;45.92;24.63;;;6.60;99.90;;;7.53;100.00;102386.03;4977593;28;20031;-77
2021/12/19 01:05:33;;;;;;;36.08;20.58;;;6.60;99.90;;;7.57;100.00;102377.91;4978893;28;20035;-78
2021/12/19 01:08:00;;;;;;;37.47;19.92;;;6.70;99.90;;;7.54;100.00;102384.91;4979551;28;20285;-77
2021/12/19 01:10:29;;;;;;;33.70;18.98;;;6.60;99.90;;;7.49;100.00;102375.78;4979785;28;20038;-78
2021/12/19 01:12:55;;;;;;;29.67;17.55;;;6.70;99.90;;;7.48;100.00;102376.91;4962505;28;20030;-77
2021/12/19 01:15:22;;;;;;;32.63;15.73;;;6.70;99.90;;;7.50;100.00;102372.72;4978706;28;20118;-77
2021/12/19 01:17:51;;;;;;;26.77;13.88;;;6.60;99.90;;;7.50;100.00;102383.84;4978301;28;20430;-78
2021/12/19 01:20:26;;;;;;;27.35;14.75;;;6.70;99.90;;;7.47;100.00;102378.88;4961263;28;20474;-78
2021/12/19 01:22:53;;;;;;;26.42;14.82;;;6.70;99.90;;;7.41;100.00;102380.03;4992638;28;20156;-77
2021/12/19 01:25:25;;;;;;;28.65;14.60;;;6.60;99.90;;;7.35;100.00;102370.13;4980861;28;20034;-76
2021/12/19 01:27:51;;;;;;;21.85;13.20;;;6.60;99.90;;;7.34;100.00;102374.00;4998298;23;20158;-76
2021/12/19 01:30:18;;;;;;;20.35;10.88;;;6.60;99.90;;;7.34;100.00;102377.63;4991296;28;20513;-77
2021/12/19 01:32:48;;;;;;;23.42;12.63;;;6.60;99.90;;;7.31;100.00;102369.03;4975360;28;20489;-78
2021/12/19 01:35:18;;;;;;;23.02;11.68;;;6.60;99.90;;;7.30;100.00;102376.53;4992662;28;20054;-77
2021/12/19 01:37:45;;;;;;;27.17;12.43;;;6.60;99.90;;;7.31;100.00;102369.88;4994080;28;20085;-76
2021/12/19 01:40:17;;;;;;;25.08;13.32;;;6.50;99.90;;;7.34;100.00;102371.22;4979757;28;20030;-75
2021/12/19 01:42:52;;;;;;;26.88;14.43;;;6.60;99.90;;;7.37;100.00;102385.38;4979245;28;20026;-78
2021/12/19 01:45:37;;;;;;;;;;;6.60;99.90;;;7.35;100.00;102375.69;4997184;28;20061;-76
2021/12/19 01:48:08;;;;;;;26.35;12.40;;;6.50;99.90;;;7.30;100.00;102372.94;4997090;28;19980;-77
2021/12/19 01:50:35;;;;;;;24.67;13.15;;;6.50;99.90;;;7.30;100.00;102378.50;4996797;28;20041;-76
2021/12/19 01:53:12;;;;;;;25.40;12.77;;;6.50;99.90;;;7.34;100.00;102374.00;4996064;28;20045;-74
2021/12/19 01:55:42;;;;;;;24.33;12.55;;;6.50;99.90;;;7.34;100.00;102365.66;4996864;28;20031;-78
2021/12/19 01:58:09;;;;;;;21.77;11.25;;;6.50;99.90;;;7.31;100.00;102364.31;4996094;28;20478;-75
2021/12/19 02:00:44;;;;;;;19.55;10.55;;;6.50;99.90;;;7.33;100.00;102372.34;4979242;28;20046;-74
2021/12/19 02:03:12;;;;;;;19.75;9.88;;;6.50;99.90;;;7.24;100.00;102357.44;4996649;28;20512;-75
2021/12/19 02:05:40;;;;;;;19.73;9.75;;;6.50;99.90;;;7.23;100.00;102353.00;4979124;28;20048;-77
2021/12/19 02:08:10;;;;;;;20.20;10.65;;;6.50;99.90;;;7.29;100.00;102352.63;4996162;28;20036;-74
2021/12/19 02:10:38;;;;;;;19.42;10.95;;;6.50;99.90;;;7.24;100.00;102355.50;4996271;28;20034;-78
2021/12/19 02:13:07;;;;;;;18.90;9.63;;;6.50;99.90;;;7.23;100.00;102350.22;4978519;28;20026;-77
2021/12/19 02:15:36;;;;;;;21.30;11.55;;;6.50;99.90;;;7.28;100.00;102351.00;4996709;28;20096;-77
2021/12/19 02:18:12;;;;;;;19.48;10.20;;;6.50;99.90;;;7.28;100.00;102344.63;4996399;28;20401;-76
2021/12/19 02:20:51;;;;;;;20.75;10.45;;;6.50;99.90;;;7.22;100.00;102341.06;4978854;28;20026;-77
2021/12/19 02:23:29;;;;;;;22.85;11.35;;;6.50;99.90;;;7.51;100.00;102346.56;4996266;28;20117;-78
2021/12/19 02:26:00;;;;;;;24.45;12.10;;;6.50;99.90;;;7.35;100.00;102347.88;4996506;28;20030;-77
2021/12/19 02:28:26;;;;;;;19.10;10.07;;;6.50;99.90;;;7.23;100.00;102337.16;4996203;28;20035;-77
2021/12/19 02:30:52;;;;;;;20.70;11.57;;;6.50;99.90;;;7.24;100.00;102335.19;4996010;28;20121;-78
2021/12/19 02:33:23;;;;;;;21.92;11.02;;;6.50;99.90;;;7.49;100.00;102346.03;4995937;28;20037;-77
2021/12/19 02:36:01;;;;;;;21.40;11.25;;;6.50;99.90;;;7.57;100.00;102331.47;4996037;28;20100;-78
2021/12/19 02:49:35;;;;;;;22.17;12.57;;;6.50;99.90;;;7.61;100.00;102317.81;4995074;28;20037;-78
2021/12/19 02:52:03;;;;;;;23.60;12.38;;;6.50;99.90;;;7.60;100.00;102318.94;4977919;28;20066;-77
2021/12/19 02:54:29;;;;;;;20.88;11.63;;;6.50;99.90;;;7.61;100.00;102318.59;4995419;28;20136;-77
2021/12/19 02:56:56;;;;;;;23.67;12.88;;;6.50;99.90;;;7.64;100.00;102315.22;4995167;28;20022;-77
2021/12/19 02:59:21;;;;;;;24.67;13.50;;;6.50;99.90;;;7.66;100.00;102314.94;4995369;28;20439;-78
2021/12/19 03:01:49;;;;;;;25.52;13.25;;;6.50;99.90;;;7.67;100.00;102317.44;4997241;28;20081;-77
2021/12/19 03:04:15;;;;;;;24.30;12.40;;;6.50;99.90;;;7.68;100.00;102312.69;4978836;28;20030;-80
2021/12/19 03:06:49;;;;;;;19.30;11.18;;;6.50;99.90;;;7.60;100.00;102308.63;4994110;28;20118;-77
2021/12/19 03:09:36;;;;;;;20.73;11.70;;;6.50;99.90;;;7.54;100.00;102309.81;4993537;28;20034;-77
2021/12/19 03:12:10;;;;;;;18.45;10.15;;;6.50;99.90;;;7.59;100.00;102303.34;4994800;28;20109;-78
2021/12/19 03:20:13;;;;;;;10.98;6.90;;;6.30;99.90;;;7.38;100.00;102306.38;4995322;28;20560;-75
2021/12/19 03:22:39;;;;;;;9.27;5.05;;;6.30;99.90;;;7.32;100.00;102301.22;4994440;28;20394;-75
2021/12/19 03:25:05;;;;;;;7.60;4.55;;;6.30;99.90;;;7.28;100.00;102303.75;4993318;28;20037;-77
2021/12/19 03:27:34;;;;;;;6.78;4.10;;;6.20;99.90;;;7.19;100.00;102299.94;4994218;28;20336;-76
2021/12/19 03:30:04;;;;;;;7.10;4.63;;;6.20;99.90;;;7.21;100.00;102292.16;4992901;28;20062;-75
2021/12/19 03:32:30;;;;;;;8.98;5.22;;;6.10;99.90;;;7.23;100.00;102292.69;4994112;28;20026;-77
2021/12/19 03:34:59;;;;;;;7.07;4.15;;;6.10;99.90;;;7.23;100.00;102284.34;4994529;28;20041;-77
2021/12/19 03:37:25;;;;;;;5.57;3.45;;;6.10;99.90;;;7.16;100.00;102278.31;4976468;28;20394;-76
2021/12/19 03:40:09;;;;;;;6.93;3.95;;;6.10;99.90;;;7.14;100.00;102286.13;4993016;28;20038;-78
2021/12/19 03:42:40;;;;;;;6.30;3.70;;;6.10;99.90;;;7.15;100.00;102275.84;4992827;28;20489;-75
2021/12/19 03:45:17;;;;;;;4.82;3.03;;;6.10;99.90;;;7.05;100.00;102278.72;4992513;28;20027;-76
2021/12/19 03:47:45;;;;;;;6.30;3.85;;;6.00;99.90;;;7.04;100.00;102269.56;4993911;28;20030;-76
2021/12/19 03:50:19;;;;;;;6.25;3.78;;;6.00;99.90;;;7.07;100.00;102268.97;4976319;28;20113;-76
2021/12/19 03:52:55;;;;;;;5.53;3.65;;;6.00;99.90;;;7.04;100.00;102269.56;4994056;28;20033;-77
2021/12/19 03:55:24;;;;;;;4.95;3.03;;;6.00;99.90;;;7.08;100.00;102265.06;4993851;28;20037;-75
2021/12/19 03:57:50;;;;;;;4.78;3.20;;;5.90;99.90;;;6.78;100.00;102269.00;4993910;28;20034;-75
2021/12/19 04:00:24;;;;;;;5.22;3.30;;;5.90;99.90;;;6.68;100.00;102260.78;4993417;28;20042;-78
2021/12/19 04:02:58;;;;;;;7.63;3.42;;;5.90;99.90;;;6.61;100.00;102259.50;4993928;28;20057;-76
2021/12/19 04:05:26;;;;;;;5.38;3.47;;;5.90;99.90;;;6.59;100.00;102262.53;4994052;28;20326;-77
2021/12/19 04:07:54;;;;;;;4.68;2.60;;;5.90;99.90;;;6.58;100.00;102258.09;4993940;28;20030;-76
2021/12/19 04:10:32;;;;;;;8.23;3.42;;;5.90;99.90;;;6.56;100.00;102257.56;4976752;28;20027;-77
2021/12/19 04:12:58;;;;;;;6.03;3.80;;;5.80;99.90;;;6.56;100.00;102257.56;4993914;28;20027;-77
2021/12/19 04:15:27;;;;;;;6.38;3.67;;;5.80;99.90;;;6.51;100.00;102254.03;4993821;28;20105;-75
2021/12/19 04:17:52;;;;;;;4.43;2.80;;;5.80;99.90;;;6.51;100.00;102242.94;4976321;28;20057;-78
2021/12/19 04:20:19;;;;;;;7.07;3.28;;;5.80;99.90;;;6.46;100.00;102246.56;4993657;28;20061;-75
2021/12/19 04:22:49;;;;;;;7.05;2.97;;;5.80;99.90;;;6.49;100.00;102237.66;4993742;28;20026;-76
2021/12/19 04:25:17;;;;;;;7.15;3.72;;;5.70;99.90;;;6.44;100.00;102232.16;4993240;28;20401;-77
2021/12/19 04:27:45;;;;;;;5.40;3.00;;;5.70;99.90;;;6.47;100.00;102236.28;4994099;28;20100;-76
2021/12/19 04:30:21;;;;;;;6.32;3.15;;;5.70;99.90;;;6.43;100.00;102238.00;4994394;28;20038;-76
2021/12/19 04:32:57;;;;;;;7.68;3.40;;;5.70;99.90;;;6.45;100.00;102230.22;4993812;28;20485;-75
2021/12/19 04:35:31;;;;;;;8.70;3.08;;;5.70;99.90;;;6.45;100.00;102235.78;4994222;28;20404;-77
2021/12/19 04:40:50;;;;;;;5.18;2.67;;;5.60;99.90;;;6.29;100.00;102215.66;4994650;28;20093;-77
2021/12/19 04:54:16;;;;;;;7.45;3.53;;;5.50;99.90;;;6.23;100.00;102212.09;4993717;28;20045;-76
2021/12/19 04:59:51;;;;;;;6.95;3.25;;;5.50;99.90;;;6.19;100.00;102202.72;4993545;28;20571;-79
2021/12/19 05:15:35;;;;;;;11.38;5.50;;;5.50;99.90;;;6.25;100.00;102201.53;4997783;28;20346;-78
2021/12/19 05:18:08;;;;;;;9.45;4.75;;;5.50;99.90;;;6.24;100.00;102205.41;4997918;28;20485;-77
2021/12/19 05:20:36;;;;;;;10.20;4.78;;;5.50;99.90;;;6.24;100.00;102199.03;4997858;28;20300;-77
2021/12/19 05:26:04;;;;;;;12.15;5.80;;;5.60;99.90;;;6.29;100.00;102197.03;4975445;28;20614;-78
2021/12/19 05:28:30;;;;;;;11.75;5.80;;;5.60;99.90;;;6.33;100.00;102200.06;4993530;28;20089;-76
2021/12/19 05:30:56;;;;;;;13.45;5.72;;;5.60;99.90;;;6.38;100.00;102196.41;4997768;28;20481;-76
2021/12/19 05:33:22;;;;;;;15.02;6.43;;;5.60;99.90;;;6.36;100.00;102194.75;4997937;28;20119;-76
2021/12/19 05:46:36;;;;;;;12.90;6.57;;;5.70;99.90;;;6.33;100.00;102192.56;4997155;28;20105;-75
2021/12/19 05:49:04;;;;;;;20.05;8.10;;;5.60;99.90;;;6.39;100.00;102189.75;4995549;28;20030;-75
2021/12/19 05:51:30;;;;;;;14.98;7.60;;;5.60;99.90;;;6.36;100.00;102200.31;4997016;28;20105;-76
2021/12/19 05:53:56;;;;;;;18.95;7.90;;;5.60;99.90;;;6.42;100.00;102194.72;4997354;28;20030;-75
2021/12/19 05:56:28;;;;;;;15.90;7.28;;;5.70;99.90;;;6.38;100.00;102185.31;4996271;28;20445;-78
2021/12/19 05:58:55;;;;;;;13.45;7.28;;;5.70;99.90;;;6.36;100.00;102191.16;4979178;28;20035;-77
2021/12/19 06:01:22;;;;;;;15.27;7.18;;;5.60;99.90;;;6.36;100.00;102194.75;4996543;28;20026;-76
2021/12/19 06:03:47;;;;;;;15.68;7.03;;;5.60;99.90;;;6.35;100.00;102195.06;4996263;28;20085;-76
2021/12/19 06:06:13;;;;;;;11.90;6.20;;;5.60;99.90;;;6.39;100.00;102198.88;4996988;28;20035;-77
2021/12/19 06:08:39;;;;;;;12.30;6.47;;;5.60;99.90;;;6.38;100.00;102194.47;4997331;28;20117;-78
2021/12/19 06:11:08;;;;;;;13.25;6.03;;;5.60;99.90;;;6.32;100.00;102188.13;4998154;28;20123;-77
2021/12/19 06:13:34;;;;;;;11.60;6.05;;;5.60;99.90;;;6.35;100.00;102186.75;4996903;28;20018;-76
2021/12/19 06:16:00;;;;;;;13.95;5.82;;;5.60;99.90;;;6.38;100.00;102182.53;4997017;28;20561;-77
2021/12/19 06:18:27;;;;;;;12.70;6.13;;;5.60;99.90;;;6.38;100.00;102179.75;4997247;28;20031;-75
2021/12/19 06:20:53;;;;;;;11.23;4.95;;;5.70;99.90;;;6.42;100.00;102178.06;4996764;28;20038;-79
2021/12/19 06:23:22;;;;;;;9.63;4.53;;;5.60;99.90;;;6.37;100.00;102170.59;4978478;28;20027;-77
2021/12/19 06:25:48;;;;;;;8.48;4.32;;;5.60;99.90;;;6.35;100.00;102168.16;4978949;28;20587;-75
2021/12/19 06:28:18;;;;;;;11.20;4.85;;;5.60;99.90;;;6.42;100.00;102178.91;4978580;28;20061;-75
2021/12/19 06:30:54;;;;;;;7.70;3.75;;;5.60;99.90;;;6.43;100.00;102172.22;4996221;28;20030;-77
2021/12/19 06:33:25;;;;;;;11.60;5.07;;;5.60;99.90;;;6.44;100.00;102160.00;4978849;28;20038;-75
2021/12/19 06:35:51;;;;;;;9.32;4.25;;;5.60;99.90;;;6.44;100.00;102156.38;4995970;28;20432;-76
2021/12/19 06:38:17;;;;;;;10.13;4.72;;;5.60;99.90;;;6.45;100.00;102153.34;4996110;28;20030;-77
2021/12/19 06:40:43;;;;;;;13.27;5.95;;;5.60;99.90;;;6.43;100.00;102154.72;4995850;28;20070;-75
2021/12/19 06:43:11;;;;;;;11.43;5.05;;;5.60;99.90;;;6.45;100.00;102141.41;4995961;28;20606;-77
2021/12/19 06:45:38;;;;;;;19.25;7.85;;;5.60;99.90;;;6.50;100.00;102133.00;4977803;28;20034;-75
2021/12/19 06:48:04;;;;;;;16.45;7.88;;;5.70;99.90;;;6.43;100.00;102146.41;4995847;28;20038;-75
2021/12/19 06:50:30;;;;;;;15.13;7.72;;;5.70;99.90;;;6.49;100.00;102134.09;4978242;28;20019;-76
2021/12/19 06:52:56;;;;;;;15.88;7.75;;;5.70;99.90;;;6.43;100.00;102138.06;4995521;28;20073;-78
2021/12/19 06:55:26;;;;;;;18.45;8.77;;;5.70;99.90;;;6.50;100.00;102144.09;4995883;28;20042;-78
2021/12/19 06:57:51;;;;;;;15.23;8.38;;;5.70;99.90;;;6.47;100.00;102144.69;4977795;28;20031;-77
2021/12/19 07:00:24;;;;;;;14.23;7.97;;;5.70;99.90;;;6.45;100.00;102142.22;4995328;28;20041;-75
2021/12/19 07:02:53;;;;;;;15.20;7.72;;;5.70;99.90;;;6.43;100.00;102136.13;4977922;28;20053;-80
2021/12/19 07:05:22;;;;;;;11.60;6.28;;;5.70;99.90;;;6.51;100.00;102143.00;4995717;28;20034;-75
2021/12/19 07:07:54;;;;;;;11.98;5.88;;;5.70;99.90;;;6.49;100.00;102139.66;4995838;28;20026;-77
2021/12/19 07:10:23;;;;;;;10.70;5.30;;;5.70;99.90;;;6.36;100.00;102133.69;4995510;28;20054;-77
2021/12/19 07:12:49;;;;;;;11.50;5.15;;;5.70;99.90;;;6.47;100.00;102139.13;4995301;28;20031;-77
2021/12/19 07:15:17;;;;;;;8.43;4.97;;;5.70;99.90;;;6.44;100.00;102128.63;4984557;28;20041;-78
2021/12/19 07:17:43;;;;;;;7.75;4.30;;;5.70;99.90;;;6.43;100.00;102136.13;4999938;28;20034;-79
2021/12/19 07:20:10;;;;;;;9.18;5.15;;;5.70;99.90;;;6.43;100.00;102130.56;4997172;28;20390;-77
2021/12/19 07:22:36;;;;;;;8.65;4.65;;;5.70;99.90;;;6.46;100.00;102134.69;4996907;28;20363;-77
2021/12/19 07:25:03;;;;;;;6.70;3.88;;;5.70;99.90;;;6.41;100.00;102132.81;4997564;28;20041;-76
2021/12/19 07:27:29;;;;;;;6.72;4.07;;;5.70;99.90;;;6.34;100.00;102129.56;5021752;23;20069;-78
2021/12/19 07:29:57;;;;;;;9.40;5.40;;;5.60;99.90;;;6.32;100.00;102129.84;4985556;28;20026;-80
2021/12/19 07:32:33;;;;;;;10.50;5.60;;;5.60;99.90;;;6.29;100.00;102135.19;5001412;28;20080;-79
2021/12/19 07:34:59;;;;;;;10.00;5.53;;;5.60;99.90;;;6.32;100.00;102127.06;4982985;28;20490;-79
2021/12/19 07:37:25;;;;;;;8.45;4.90;;;5.60;99.90;;;6.34;100.00;102135.94;5000617;28;20052;-80
2021/12/19 07:40:09;;;;;;;8.07;4.50;;;5.60;99.90;;;6.38;100.00;102133.41;5001112;28;20080;-77
2021/12/19 07:42:35;;;;;;;8.13;5.05;;;5.60;99.90;;;6.47;100.00;102136.38;4999796;28;20634;-80
2021/12/19 07:45:01;;;;;;;8.02;5.15;;;5.70;99.90;;;6.44;100.00;102143.34;4999831;28;20061;-78
2021/12/19 07:47:27;;;;;;;9.55;5.35;;;5.70;99.90;;;6.39;100.00;102137.81;4982122;28;20110;-78
2021/12/19 07:49:53;;;;;;;10.70;6.18;;;5.70;99.90;;;6.30;100.00;102123.78;4999410;28;20370;-79
2021/12/19 07:52:21;;;;;;;11.82;7.28;;;5.70;99.90;;;6.42;100.00;102122.56;4981918;28;20034;-78
2021/12/19 07:54:47;;;;;;;9.60;6.72;;;5.70;99.90;;;6.40;100.00;102127.56;4999264;28;20049;-78
2021/12/19 07:57:13;;;;;;;10.80;6.18;;;5.70;99.90;;;6.37;100.00;102112.31;4981006;28;20080;-78
2021/12/19 07:59:39;;;;;;;13.48;6.60;;;5.70;99.90;;;6.41;100.00;102116.19;4981205;28;20069;-80
2021/12/19 08:02:05;;;;;;;12.93;7.32;;;5.70;99.90;;;6.49;100.00;102114.69;4980854;28;20030;-80
2021/12/19 08:04:32;;;;;;;10.55;6.45;;;5.70;99.90;;;6.50;100.00;102119.94;4981908;28;20030;-78
2021/12/19 08:06:57;;;;;;;12.32;5.95;;;5.70;99.90;;;6.57;100.00;102114.03;4998477;28;20034;-80
2021/12/19 08:09:35;;;;;;;12.00;6.13;;;5.80;99.90;;;6.62;100.00;102112.03;4998497;28;20026;-76
2021/12/19 08:12:07;;;;;;;10.40;5.53;;;5.80;99.90;;;6.57;100.00;102103.78;4981034;28;20132;-78
2021/12/19 08:14:36;;;;;;;10.50;6.03;;;5.80;99.90;;;6.55;100.00;102108.78;4982353;28;20145;-79
2021/12/19 08:17:05;;;;;;;11.35;6.28;;;5.80;99.90;;;6.53;100.00;102112.97;4982936;28;20053;-77
2021/12/19 08:19:34;;;;;;;10.02;5.88;;;5.80;99.90;;;6.57;100.00;102095.44;4981468;28;20385;-80
2021/12/19 08:22:06;;;;;;;8.85;5.55;;;5.80;99.90;;;6.62;100.00;102097.31;5006436;28;20113;-79
2021/12/19 08:24:31;;;;;;;9.95;5.85;;;5.90;99.90;;;6.66;100.00;102101.16;4999932;28;20025;-78
2021/12/19 08:26:57;;;;;;;10.57;6.72;;;5.90;99.90;;;6.70;100.00;102100.28;5018469;28;20314;-78
2021/12/19 08:29:23;;;;;;;10.48;6.05;;;5.90;99.90;;;6.68;100.00;102108.06;5017465;28;20025;-78
2021/12/19 08:31:49;;;;;;;9.80;6.00;;;6.00;99.90;;;6.78;100.00;102105.16;5018970;28;20030;-79
2021/12/19 08:34:19;;;;;;;10.23;5.63;;;6.00;99.90;;;6.80;100.00;102097.38;5017415;28;20034;-78
2021/12/19 08:36:48;;;;;;;13.32;6.25;;;6.00;99.90;;;6.81;100.00;102096.22;5018380;28;20029;-79
2021/12/19 08:39:14;;;;;;;9.32;5.93;;;6.00;99.90;;;6.86;100.00;102098.97;5019590;28;20129;-79
2021/12/19 08:41:40;;;;;;;9.45;5.68;;;6.10;99.90;;;6.87;100.00;102092.25;5001780;28;20044;-79
2021/12/19 08:44:07;;;;;;;9.55;6.07;;;6.10;99.90;;;6.91;100.00;102089.72;5001485;28;20033;-79
2021/12/19 08:46:37;;;;;;;9.07;5.45;;;6.10;99.90;;;6.92;100.00;102091.38;5001484;28;20054;-80
2021/12/19 08:49:05;;;;;;;9.82;6.05;;;6.10;99.90;;;6.96;100.00;102084.09;5019057;28;20028;-78
2021/12/19 08:51:35;;;;;;;11.27;6.22;;;6.20;99.90;;;7.01;100.00;102085.97;5018950;28;20026;-81
2021/12/19 08:54:02;;;;;;;15.30;8.63;;;6.20;99.90;;;7.01;100.00;102085.97;5019041;28;20438;-79
2021/12/19 08:56:29;;;;;;;11.25;6.78;;;6.20;99.90;;;7.08;100.00;102078.09;5017460;28;20057;-80
2021/12/19 08:58:56;;;;;;;8.20;4.75;;;6.30;99.90;;;7.14;100.00;102082.44;5017014;28;20034;-80
2021/12/19 09:01:22;;;;;;;10.93;5.40;;;6.30;99.90;;;7.09;100.00;102071.41;4998347;28;20053;-81
2021/12/19 09:03:48;;;;;;;7.45;4.30;;;6.30;99.90;;;7.06;100.00;102072.00;4998504;28;20030;-81
2021/12/19 09:06:14;;;;;;;10.30;4.63;;;6.30;99.90;;;7.03;100.00;102080.94;5016685;28;20094;-82
2021/12/19 09:08:40;;;;;;;7.57;5.00;;;6.30;99.90;;;7.04;100.00;102079.81;5018730;28;20033;-79
2021/12/19 09:11:15;;;;;;;9.70;5.28;;;6.30;99.90;;;7.08;100.00;102069.75;5016999;28;20030;-81
2021/12/19 09:13:41;;;;;;;7.32;4.20;;;6.40;99.90;;;7.09;100.00;102069.47;5017361;28;20030;-80
2021/12/19 09:16:13;;;;;;;11.98;6.68;;;6.30;99.90;;;7.13;100.00;102073.28;4998778;28;20029;-79
2021/12/19 09:18:39;;;;;;;9.40;5.10;;;6.40;99.90;;;7.17;100.00;102073.50;5015939;28;20026;-78
2021/12/19 09:21:08;;;;;;;8.65;4.10;;;6.40;99.90;;;7.14;100.00;102069.38;4998485;28;20453;-79
2021/12/19 09:23:34;;;;;;;7.00;4.65;;;6.40;99.90;;;7.12;100.00;102066.09;4999786;28;20535;-79
2021/12/19 09:26:01;;;;;;;9.00;4.72;;;6.40;99.90;;;7.22;100.00;102065.09;5002150;28;20037;-80
2021/12/19 09:28:27;;;;;;;8.80;5.28;;;6.40;99.90;;;7.25;100.00;102059.78;5020374;28;20030;-80
2021/12/19 09:30:53;;;;;;;14.93;5.93;;;6.40;99.90;;;7.19;100.00;102063.72;5021107;28;20026;-78
2021/12/19 09:33:19;;;;;;;11.25;6.00;;;6.50;99.90;;;7.19;100.00;102060.16;5003173;28;20026;-79
2021/12/19 09:35:48;;;;;;;12.98;6.15;;;6.40;99.90;;;7.21;100.00;102066.22;5003386;28;20350;-79
2021/12/19 09:38:18;;;;;;;13.50;5.88;;;6.50;99.90;;;7.23;100.00;102059.22;5002301;28;20057;-78
2021/12/19 09:40:48;;;;;;;13.45;5.57;;;6.50;99.90;;;7.26;100.00;102064.19;5000393;28;20030;-78
2021/12/19 09:43:49;;;;;;;7.15;4.10;;;6.40;99.90;;;7.28;100.00;102064.72;5017306;28;20538;-79
2021/12/19 09:46:22;;;;;;;5.53;3.45;;;6.50;99.90;;;7.27;100.00;102054.72;5019180;28;20089;-79
2021/12/19 09:48:49;;;;;;;6.88;3.47;;;6.50;99.90;;;7.21;100.00;102052.31;5019947;28;20032;-80
2021/12/19 09:51:18;;;;;;;6.15;3.42;;;6.50;99.90;;;7.29;100.00;102055.25;5021620;28;20041;-78
2021/12/19 09:53:44;;;;;;;3.92;2.90;;;6.50;99.90;;;7.31;100.00;102052.16;5031041;28;20046;-79
2021/12/19 09:56:12;;;;;;;5.03;2.85;;;6.50;99.90;;;7.32;100.00;102046.28;5030105;28;20037;-79
2021/12/19 09:58:40;;;;;;;4.97;2.83;;;6.50;99.90;;;7.35;100.00;102054.03;5029222;28;20026;-80
2021/12/19 10:01:11;;;;;;;5.53;2.70;;;6.50;99.90;;;7.30;100.00;102042.16;5024909;28;20065;-77
2021/12/19 10:03:39;;;;;;;4.80;2.53;;;6.50;99.90;;;7.29;100.00;102049.69;5008149;28;20030;-80
2021/12/19 10:06:25;;;;;;;4.70;2.13;;;6.50;99.90;;;7.27;100.00;102048.34;5027244;28;20030;-77
2021/12/19 10:09:18;;;;;;;3.43;2.27;;;6.50;99.90;;;7.34;100.00;102046.84;5006846;28;20037;-80
2021/12/19 10:14:35;;;;;;;4.60;2.58;;;6.50;99.90;;;7.26;100.00;102027.22;5022480;28;20132;-77
2021/12/19 10:17:06;;;;;;;2.28;1.40;;;6.50;99.90;;;7.26;100.00;102032.78;5021386;28;20026;-76
2021/12/19 10:20:03;;;;;;;3.25;1.80;;;6.50;99.90;;;7.27;100.00;102028.88;5020849;28;20041;-77
2021/12/19 10:22:39;;;;;;;3.60;2.13;;;6.50;99.90;;;7.27;100.00;102037.22;5023752;28;20022;-78
2021/12/19 10:25:18;;;;;;;2.95;1.77;;;6.50;99.90;;;7.30;100.00;102031.06;5020801;28;20038;-76
2021/12/19 10:27:57;;;;;;;4.10;2.10;;;6.50;99.90;;;7.36;100.00;102038.19;5004659;28;20117;-76
2021/12/19 10:30:46;;;;;;;3.80;2.40;;;6.60;99.90;;;7.40;100.00;102028.94;5004057;28;20026;-75
2021/12/19 10:33:27;;;;;;;2.42;1.67;;;6.60;99.90;;;7.37;100.00;102024.00;5023039;28;20022;-77
2021/12/19 10:36:05;;;;;;;2.40;1.35;;;6.60;99.90;;;7.46;100.00;102020.50;5028806;28;20037;-77
2021/12/19 10:38:45;;;;;;;2.22;0.98;;;6.70;99.90;;;7.56;100.00;102021.16;5027308;28;20038;-80
2021/12/19 10:41:33;;;;;;;1.90;1.13;;;6.80;99.90;;;7.58;100.00;102012.53;5027058;28;20145;-78
2021/12/19 10:46:42;;;;;;;2.72;1.77;;;6.90;99.90;;;7.61;100.00;102018.28;5018819;28;20033;-76
2021/12/19 10:49:33;;;;;;;1.70;1.27;;;6.80;99.90;;;7.51;100.00;102007.38;5002726;28;20120;-78
2021/12/19 10:52:04;;;;;;;3.10;1.42;;;6.80;99.90;;;7.52;100.00;102010.94;5024606;28;20057;-76
2021/12/19 10:54:31;;;;;;;3.30;1.92;;;6.70;99.90;;;7.52;100.00;101994.25;5020580;28;20511;-77
2021/12/19 10:57:12;;;;;;;2.97;1.70;;;6.70;99.90;;;7.46;100.00;101984.34;5018172;28;20030;-77
2021/12/19 10:59:43;;;;;;;2.53;1.60;;;6.70;99.90;;;7.34;100.00;101985.69;5016119;28;20341;-76
2021/12/19 11:02:42;;;;;;;3.50;1.42;;;6.60;99.90;;;7.40;100.00;101980.84;5015861;28;20052;-78
2021/12/19 11:05:43;;;;;;;2.63;1.35;;;6.60;99.90;;;7.40;100.00;101983.63;5015685;28;20092;-77
2021/12/19 11:08:10;;;;;;;2.35;1.65;;;6.70;99.90;;;7.34;100.00;101980.13;5014180;28;20022;-76
2021/12/19 11:10:41;;;;;;;1.65;1.20;;;6.60;99.90;;;7.27;100.00;101974.13;4996602;28;20037;-77
2021/12/19 11:13:16;;;;;;;1.73;1.20;;;6.60;99.90;;;7.31;100.00;101977.13;5014390;28;20018;-77
2021/12/19 11:15:42;;;;;;;1.77;1.27;;;6.50;99.90;;;7.26;100.00;101966.91;5014972;28;20037;-77
2021/12/19 11:18:14;;;;;;;1.90;1.27;;;6.50;99.90;;;7.28;100.00;101966.63;4998839;28;20453;-77
2021/12/19 11:20:41;;;;;;;2.38;1.42;;;6.60;99.90;;;7.31;100.00;101964.06;5021757;28;20084;-77
2021/12/19 11:23:07;;;;;;;1.92;1.40;;;6.60;99.90;;;7.34;100.00;101963.44;5020480;28;20025;-77
2021/12/19 11:25:37;;;;;;;6.57;3.03;;;6.60;99.90;;;7.37;100.00;101956.44;5017439;28;20048;-77
2021/12/19 11:28:04;;;;;;;3.17;1.95;;;6.60;99.90;;;7.35;100.00;101951.19;4999341;28;20030;-77
2021/12/19 11:30:31;;;;;;;4.25;2.42;;;6.60;99.90;;;7.41;100.00;101951.94;5015781;28;20087;-77
2021/12/19 11:34:10;;;;;;;3.08;1.48;;;6.60;99.90;;;7.38;100.00;101945.00;5015795;28;20017;-78
2021/12/19 11:36:46;;;;;;;3.35;1.80;;;6.60;99.90;;;7.39;100.00;101948.63;5014813;28;20022;-77
2021/12/19 11:39:15;;;;;;;5.28;2.88;;;6.60;99.90;;;7.36;100.00;101946.44;4998069;28;20026;-79
2021/12/19 11:42:16;;;;;;;3.70;2.33;;;6.60;99.90;;;7.36;100.00;101949.22;5015975;28;20045;-77